Time;durP1;ratioP1;P1;durP2;ratioP2;P2;SDS_P1;SDS_P2;PMS_P1;PMS_P2;Temp;Humidity;BMP_temperature;BMP_pressure;BME280_temperature;BME280_humidity;BME280_pressure;Samples;Min_cycle;Max_cycle;Signal;HPM_P1;HPM_P2
2022/03/29 00:00:17;;;;;;;17.95;10.80;;;;;;;;;;5306111;28;20019;-68
2022/03/29 00:02:48;;;;;;;27.20;11.73;;;;;;;;;;5304629;28;20020;-67
2022/03/29 00:05:19;;;;;;;22.33;11.75;;;;;;;;;;5305896;28;20466;-67
2022/03/29 00:07:50;;;;;;;30.05;13.02;;;;;;;;;;5305128;28;20406;-68
2022/03/29 00:10:21;;;;;;;27.84;12.86;;;;;;;;;;5305220;28;20271;-67
2022/03/29 00:12:55;;;;;;;24.28;12.76;;;;;;;;;;5305107;28;20028;-67
2022/03/29 00:15:28;;;;;;;25.00;13.07;;;;;;;;;;5304753;28;20036;-68
2022/03/29 00:17:59;;;;;;;28.60;13.20;;;;;;;;;;5304892;28;20101;-68
2022/03/29 00:20:31;;;;;;;23.45;13.18;;;;;;;;;;5305143;28;20041;-68
2022/03/29 00:23:03;;;;;;;31.60;14.40;;;;;;;;;;5304634;28;20404;-67
2022/03/29 00:25:34;;;;;;;24.95;13.77;;;;;;;;;;5305323;28;20371;-67
2022/03/29 00:28:05;;;;;;;22.10;14.04;;;;;;;;;;5305368;28;20028;-67
2022/03/29 00:30:36;;;;;;;25.23;16.05;;;;;;;;;;5304303;28;20068;-68
2022/03/29 00:33:07;;;;;;;25.63;14.50;;;;;;;;;;5305004;28;20047;-68
2022/03/29 00:35:39;;;;;;;26.40;15.02;;;;;;;;;;5304960;28;20477;-67
2022/03/29 00:38:10;;;;;;;24.13;15.23;;;;;;;;;;5304104;28;20560;-67
2022/03/29 00:40:41;;;;;;;25.10;14.18;;;;;;;;;;5304891;28;20455;-67
2022/03/29 00:43:12;;;;;;;22.40;15.52;;;;;;;;;;5304849;28;20786;-67
2022/03/29 00:45:45;;;;;;;26.98;15.93;;;;;;;;;;5303958;28;20458;-67
2022/03/29 00:48:16;;;;;;;29.13;15.13;;;;;;;;;;5305220;28;20020;-68
2022/03/29 00:50:48;;;;;;;31.35;17.15;;;;;;;;;;5303170;28;20024;-68
2022/03/29 00:53:20;;;;;;;27.08;16.73;;;;;;;;;;5304920;28;20036;-68
2022/03/29 00:55:51;;;;;;;26.27;16.83;;;;;;;;;;5304211;28;20016;-66
2022/03/29 00:58:22;;;;;;;26.98;16.13;;;;;;;;;;5304381;28;20020;-66
2022/03/29 01:00:54;;;;;;;29.08;17.08;;;;;;;;;;5304066;28;20016;-66
2022/03/29 01:03:26;;;;;;;28.13;17.33;;;;;;;;;;5304841;28;20040;-68
2022/03/29 01:05:57;;;;;;;31.17;17.67;;;;;;;;;;5303502;28;20030;-66
2022/03/29 01:08:28;;;;;;;28.13;17.52;;;;;;;;;;5304480;28;20073;-66
2022/03/29 01:11:00;;;;;;;25.88;17.25;;;;;;;;;;5304271;28;20008;-66
2022/03/29 01:13:32;;;;;;;27.08;17.38;;;;;;;;;;5303217;28;20417;-66
2022/03/29 01:17:38;;;;;;;28.33;17.20;;;;;;;;;;5304144;28;20465;-67
2022/03/29 01:18:55;;;;;;;25.95;18.00;;;;;;;;;;5302993;28;20037;-66
2022/03/29 01:21:29;;;;;;;30.58;18.27;;;;;;;;;;5304495;28;20089;-67
2022/03/29 01:24:01;;;;;;;31.60;18.40;;;;;;;;;;5304058;28;20369;-67
2022/03/29 01:26:33;;;;;;;27.85;17.92;;;;;;;;;;5303221;28;20056;-68
2022/03/29 01:29:06;;;;;;;28.52;18.73;;;;;;;;;;5303949;28;20012;-68
2022/03/29 01:31:37;;;;;;;29.30;18.23;;;;;;;;;;5304265;28;20449;-67
2022/03/29 01:34:08;;;;;;;30.63;20.25;;;;;;;;;;5302988;28;20024;-67
2022/03/29 01:36:40;;;;;;;28.25;18.33;;;;;;;;;;5303589;28;20099;-68
2022/03/29 01:39:11;;;;;;;30.23;18.38;;;;;;;;;;5303763;28;20031;-68
2022/03/29 01:41:42;;;;;;;34.28;19.77;;;;;;;;;;5302678;28;20024;-68
2022/03/29 01:44:14;;;;;;;32.53;20.30;;;;;;;;;;5303754;28;20023;-69
2022/03/29 01:46:45;;;;;;;26.35;19.17;;;;;;;;;;5302765;28;20034;-68
2022/03/29 01:49:16;;;;;;;29.60;19.52;;;;;;;;;;5303676;28;20393;-67
2022/03/29 01:51:48;;;;;;;27.77;20.70;;;;;;;;;;5302990;28;20507;-67
2022/03/29 01:54:19;;;;;;;31.45;20.63;;;;;;;;;;5302887;28;20379;-68
2022/03/29 01:56:50;;;;;;;31.33;20.63;;;;;;;;;;5303151;28;20020;-68
2022/03/29 01:59:22;;;;;;;30.16;20.30;;;;;;;;;;5303827;28;20020;-68
2022/03/29 02:01:53;;;;;;;31.60;22.77;;;;;;;;;;5301298;28;20009;-68
2022/03/29 02:04:25;;;;;;;29.45;21.40;;;;;;;;;;5303597;28;20027;-70
2022/03/29 02:06:59;;;;;;;29.20;20.88;;;;;;;;;;5302821;28;20032;-68
2022/03/29 02:09:31;;;;;;;33.60;22.85;;;;;;;;;;5302507;28;20262;-68
2022/03/29 02:12:03;;;;;;;37.63;22.30;;;;;;;;;;5303136;28;20073;-68
2022/03/29 02:14:34;;;;;;;31.75;22.42;;;;;;;;;;5303155;28;20096;-69
2022/03/29 02:17:06;;;;;;;31.63;22.35;;;;;;;;;;5302022;28;20131;-68
2022/03/29 02:19:37;;;;;;;31.85;20.98;;;;;;;;;;5302888;28;20493;-69
2022/03/29 02:22:08;;;;;;;30.46;22.78;;;;;;;;;;5302568;28;20161;-68
2022/03/29 02:24:39;;;;;;;31.88;23.73;;;;;;;;;;5302601;28;20031;-66
2022/03/29 02:27:10;;;;;;;35.53;23.98;;;;;;;;;;5302980;28;20269;-66
2022/03/29 02:29:42;;;;;;;34.58;24.00;;;;;;;;;;5301788;28;20028;-66
2022/03/29 02:32:13;;;;;;;32.42;23.85;;;;;;;;;;5302580;28;20024;-66
2022/03/29 02:34:47;;;;;;;33.83;23.23;;;;;;;;;;5302364;28;20547;-67
2022/03/29 02:37:18;;;;;;;30.20;23.25;;;;;;;;;;5302262;28;20024;-68
2022/03/29 02:39:49;;;;;;;34.26;23.34;;;;;;;;;;5302109;28;20110;-67
2022/03/29 02:42:20;;;;;;;34.86;24.20;;;;;;;;;;5302788;28;20361;-68
2022/03/29 02:44:52;;;;;;;37.42;24.96;;;;;;;;;;5301091;28;20024;-68
2022/03/29 02:47:23;;;;;;;33.72;25.73;;;;;;;;;;5302873;28;20559;-68
2022/03/29 02:49:54;;;;;;;38.60;25.88;;;;;;;;;;5302186;28;20270;-68
2022/03/29 02:52:25;;;;;;;38.67;26.67;;;;;;;;;;5301682;28;20032;-68
2022/03/29 02:54:56;;;;;;;37.72;25.66;;;;;;;;;;5301888;28;20602;-68
2022/03/29 02:57:27;;;;;;;38.10;27.10;;;;;;;;;;5301946;28;20427;-68
2022/03/29 02:59:59;;;;;;;39.22;26.42;;;;;;;;;;5302033;28;20091;-68
2022/03/29 03:02:30;;;;;;;37.33;26.70;;;;;;;;;;5302343;28;20024;-68
2022/03/29 03:05:01;;;;;;;42.50;28.13;;;;;;;;;;5301460;28;20381;-68
2022/03/29 03:07:32;;;;;;;40.24;27.16;;;;;;;;;;5302392;28;20281;-68
2022/03/29 03:10:04;;;;;;;42.85;29.33;;;;;;;;;;5302070;28;20016;-68
2022/03/29 03:12:35;;;;;;;41.40;29.67;;;;;;;;;;5301046;28;20556;-68
2022/03/29 03:15:07;;;;;;;42.75;30.00;;;;;;;;;;5301967;28;20036;-68
2022/03/29 03:17:38;;;;;;;42.35;30.42;;;;;;;;;;5301962;28;20072;-68
2022/03/29 03:20:11;;;;;;;42.08;30.63;;;;;;;;;;5301466;28;20030;-68
2022/03/29 03:22:43;;;;;;;42.42;29.02;;;;;;;;;;5301977;28;20016;-68
2022/03/29 03:25:14;;;;;;;45.03;31.75;;;;;;;;;;5301327;28;20059;-68
2022/03/29 03:27:45;;;;;;;42.67;29.40;;;;;;;;;;5301497;28;20470;-68
2022/03/29 03:30:17;;;;;;;45.40;29.70;;;;;;;;;;5302133;28;20024;-68
2022/03/29 03:32:48;;;;;;;46.60;31.17;;;;;;;;;;5300807;28;20715;-68
2022/03/29 03:35:20;;;;;;;44.60;32.05;;;;;;;;;;5302332;28;20052;-69
2022/03/29 03:37:51;;;;;;;45.92;32.35;;;;;;;;;;5301507;28;20028;-68
2022/03/29 03:40:22;;;;;;;49.65;34.20;;;;;;;;;;5301237;28;20417;-68
2022/03/29 03:42:54;;;;;;;48.28;32.90;;;;;;;;;;5301394;28;20776;-68
2022/03/29 03:45:25;;;;;;;45.80;31.62;;;;;;;;;;5302220;28;20027;-67
2022/03/29 03:47:56;;;;;;;48.08;34.85;;;;;;;;;;5300637;28;20027;-68
2022/03/29 03:50:27;;;;;;;50.42;33.60;;;;;;;;;;5301896;28;20270;-67
2022/03/29 03:53:00;;;;;;;54.55;35.40;;;;;;;;;;5301385;28;20487;-68
2022/03/29 03:55:31;;;;;;;48.60;33.20;;;;;;;;;;5301088;28;20086;-67
2022/03/29 03:58:02;;;;;;;48.70;33.92;;;;;;;;;;5301931;28;20024;-67
2022/03/29 04:00:33;;;;;;;49.90;33.55;;;;;;;;;;5300755;28;20471;-68
2022/03/29 04:03:04;;;;;;;47.15;31.98;;;;;;;;;;5301673;28;20270;-69
2022/03/29 04:05:36;;;;;;;51.28;33.88;;;;;;;;;;5301359;28;20303;-68
2022/03/29 04:08:07;;;;;;;48.20;33.67;;;;;;;;;;5300969;28;20016;-68
2022/03/29 04:10:40;;;;;;;50.58;37.38;;;;;;;;;;5301622;28;20032;-68
2022/03/29 04:13:11;;;;;;;52.67;36.55;;;;;;;;;;5301442;28;20044;-68
2022/03/29 04:15:42;;;;;;;52.16;36.16;;;;;;;;;;5300517;28;20089;-68
2022/03/29 04:18:13;;;;;;;50.47;35.33;;;;;;;;;;5301581;28;20371;-68
2022/03/29 04:20:44;;;;;;;54.67;36.88;;;;;;;;;;5301146;28;20099;-68
2022/03/29 04:23:16;;;;;;;55.97;36.75;;;;;;;;;;5301119;28;20546;-68
2022/03/29 04:25:47;;;;;;;51.25;37.10;;;;;;;;;;5303510;28;20016;-68
2022/03/29 04:28:19;;;;;;;54.28;37.72;;;;;;;;;;5305420;28;20023;-68
2022/03/29 04:30:50;;;;;;;54.20;39.20;;;;;;;;;;5303956;28;20254;-68
2022/03/29 04:33:22;;;;;;;61.28;39.70;;;;;;;;;;5305493;28;20024;-68
2022/03/29 04:35:54;;;;;;;55.20;38.72;;;;;;;;;;5304192;28;20295;-68
2022/03/29 04:38:25;;;;;;;55.42;39.55;;;;;;;;;;5305184;28;20061;-67
2022/03/29 04:40:56;;;;;;;59.85;41.30;;;;;;;;;;5304723;28;20108;-67
2022/03/29 04:43:28;;;;;;;56.32;39.86;;;;;;;;;;5304559;28;20281;-69
2022/03/29 04:46:01;;;;;;;58.13;40.97;;;;;;;;;;5304759;28;20024;-68
2022/03/29 04:48:32;;;;;;;59.80;39.75;;;;;;;;;;5304830;28;20105;-67
2022/03/29 04:51:04;;;;;;;58.18;40.28;;;;;;;;;;5303899;28;20062;-68
2022/03/29 04:53:35;;;;;;;58.13;39.72;;;;;;;;;;5304399;28;20032;-67
2022/03/29 04:56:06;;;;;;;57.88;40.38;;;;;;;;;;5304796;28;20020;-67
2022/03/29 04:58:37;;;;;;;60.58;40.75;;;;;;;;;;5303858;28;20261;-68
2022/03/29 05:01:09;;;;;;;64.13;44.65;;;;;;;;;;5304732;28;20016;-68
2022/03/29 05:03:40;;;;;;;61.95;42.95;;;;;;;;;;5304291;28;20375;-67
2022/03/29 05:06:11;;;;;;;61.66;43.66;;;;;;;;;;5304274;28;20013;-68
2022/03/29 05:08:42;;;;;;;62.15;42.30;;;;;;;;;;5304620;28;20055;-67
2022/03/29 05:11:13;;;;;;;65.16;43.14;;;;;;;;;;5303616;28;20028;-67
2022/03/29 05:13:45;;;;;;;62.15;41.53;;;;;;;;;;5303869;28;20032;-68
2022/03/29 05:16:16;;;;;;;59.55;41.58;;;;;;;;;;5304232;28;20040;-67
2022/03/29 05:18:49;;;;;;;61.05;43.00;;;;;;;;;;5302937;28;20024;-68
2022/03/29 05:21:20;;;;;;;62.35;42.05;;;;;;;;;;5304330;28;20069;-69
2022/03/29 05:23:51;;;;;;;63.78;45.00;;;;;;;;;;5303622;28;20023;-68
2022/03/29 05:26:24;;;;;;;67.38;45.22;;;;;;;;;;5303389;28;20047;-67
2022/03/29 05:28:56;;;;;;;67.18;43.80;;;;;;;;;;5303408;28;20065;-68
2022/03/29 05:31:27;;;;;;;64.22;46.10;;;;;;;;;;5304227;28;20032;-68
2022/03/29 05:33:58;;;;;;;73.60;50.13;;;;;;;;;;5302586;28;20042;-68
2022/03/29 05:36:30;;;;;;;66.70;45.55;;;;;;;;;;5303646;28;20023;-68
2022/03/29 05:39:03;;;;;;;78.40;47.40;;;;;;;;;;5302846;28;20273;-68
2022/03/29 05:41:34;;;;;;;77.50;49.33;;;;;;;;;;5303350;28;20051;-68
2022/03/29 05:44:05;;;;;;;78.60;50.54;;;;;;;;;;5303605;28;20047;-68
2022/03/29 05:49:27;;;;;;;77.50;47.70;;;;;;;;;;5303849;28;20428;-67
2022/03/29 05:51:58;;;;;;;72.40;46.03;;;;;;;;;;5302877;28;20016;-67
2022/03/29 05:54:30;;;;;;;80.40;47.30;;;;;;;;;;5302257;28;20035;-67
2022/03/29 05:57:03;;;;;;;84.03;47.88;;;;;;;;;;5303403;28;20513;-67
2022/03/29 05:59:34;;;;;;;85.47;50.53;;;;;;;;;;5303264;28;20008;-67
2022/03/29 06:02:06;;;;;;;76.10;49.33;;;;;;;;;;5302225;28;20070;-67
2022/03/29 06:04:38;;;;;;;85.45;50.15;;;;;;;;;;5303519;28;20020;-67
2022/03/29 06:07:09;;;;;;;85.90;51.97;;;;;;;;;;5302278;28;20095;-67
2022/03/29 06:09:40;;;;;;;85.57;51.03;;;;;;;;;;5303140;28;20016;-67
2022/03/29 06:12:11;;;;;;;87.38;50.28;;;;;;;;;;5302682;28;20032;-67
2022/03/29 06:14:42;;;;;;;86.42;50.44;;;;;;;;;;5301793;28;20795;-67
2022/03/29 06:17:14;;;;;;;83.47;49.30;;;;;;;;;;5303048;28;20054;-67
2022/03/29 06:19:45;;;;;;;94.55;53.25;;;;;;;;;;5302405;28;20262;-67
2022/03/29 06:22:16;;;;;;;89.97;51.97;;;;;;;;;;5302337;28;20320;-68
2022/03/29 06:24:48;;;;;;;97.54;55.32;;;;;;;;;;5302429;28;20031;-68
2022/03/29 06:27:19;;;;;;;93.93;52.63;;;;;;;;;;5302806;28;20016;-67
2022/03/29 06:29:50;;;;;;;94.63;53.90;;;;;;;;;;5301566;28;20499;-68
2022/03/29 06:32:21;;;;;;;93.90;55.35;;;;;;;;;;5302992;28;20028;-68
2022/03/29 06:34:52;;;;;;;97.10;52.74;;;;;;;;;;5302368;28;20024;-68
2022/03/29 06:37:23;;;;;;;86.95;49.83;;;;;;;;;;5302085;28;20016;-68
2022/03/29 06:39:54;;;;;;;89.93;50.75;;;;;;;;;;5302120;28;20028;-68
2022/03/29 06:42:26;;;;;;;94.78;52.53;;;;;;;;;;5302217;28;20045;-69
2022/03/29 06:44:57;;;;;;;92.32;53.18;;;;;;;;;;5302139;28;20349;-67
2022/03/29 06:47:28;;;;;;;99.68;54.52;;;;;;;;;;5302491;28;20020;-67
2022/03/29 06:49:59;;;;;;;92.70;54.88;;;;;;;;;;5301343;28;20099;-67
2022/03/29 06:52:37;;;;;;;100.63;57.25;;;;;;;;;;5302459;28;20024;-67
2022/03/29 06:55:11;;;;;;;97.67;53.57;;;;;;;;;;5302467;28;20024;-67
2022/03/29 06:57:43;;;;;;;101.78;53.30;;;;;;;;;;5301587;28;20076;-67
2022/03/29 07:00:15;;;;;;;94.60;53.75;;;;;;;;;;5302380;28;20016;-67
2022/03/29 07:02:48;;;;;;;97.38;53.92;;;;;;;;;;5301803;28;20024;-67
2022/03/29 07:05:19;;;;;;;97.03;54.25;;;;;;;;;;5301820;28;20031;-68
2022/03/29 07:07:50;;;;;;;103.70;56.75;;;;;;;;;;5302013;28;20047;-68
2022/03/29 07:13:11;;;;;;;100.45;55.05;;;;;;;;;;5302240;28;20036;-67
2022/03/29 07:15:42;;;;;;;97.02;52.70;;;;;;;;;;5302132;28;20048;-68
2022/03/29 07:18:14;;;;;;;102.50;56.55;;;;;;;;;;5301270;28;20012;-67
2022/03/29 07:20:45;;;;;;;96.78;54.75;;;;;;;;;;5301822;28;20016;-67
2022/03/29 07:23:16;;;;;;;97.03;53.97;;;;;;;;;;5302484;28;20016;-67
2022/03/29 07:25:47;;;;;;;104.07;56.13;;;;;;;;;;5300825;28;20024;-67
2022/03/29 07:28:18;;;;;;;103.94;55.52;;;;;;;;;;5302441;28;20044;-67
2022/03/29 07:30:50;;;;;;;102.85;53.65;;;;;;;;;;5301770;28;20016;-67
2022/03/29 07:33:21;;;;;;;101.43;52.20;;;;;;;;;;5301564;28;20035;-67
2022/03/29 07:35:52;;;;;;;102.60;56.97;;;;;;;;;;5301518;28;20020;-68
2022/03/29 07:38:23;;;;;;;103.07;55.42;;;;;;;;;;5302462;28;20278;-67
2022/03/29 07:40:55;;;;;;;106.90;56.55;;;;;;;;;;5300885;28;20028;-68
2022/03/29 07:43:27;;;;;;;103.47;51.83;;;;;;;;;;5302171;28;20020;-68
2022/03/29 07:45:58;;;;;;;95.80;51.08;;;;;;;;;;5300760;28;20020;-68
2022/03/29 07:48:29;;;;;;;103.55;53.38;;;;;;;;;;5301883;28;20026;-68
2022/03/29 07:51:01;;;;;;;100.48;53.62;;;;;;;;;;5301595;28;20063;-68
2022/03/29 07:53:32;;;;;;;88.40;48.95;;;;;;;;;;5301304;28;20028;-67
2022/03/29 07:56:04;;;;;;;93.47;50.45;;;;;;;;;;5301949;28;20066;-68
2022/03/29 07:58:35;;;;;;;94.85;51.88;;;;;;;;;;5301428;28;20206;-67
2022/03/29 08:01:06;;;;;;;90.82;50.84;;;;;;;;;;5304015;28;20354;-68
2022/03/29 08:03:37;;;;;;;93.60;51.38;;;;;;;;;;5305978;28;20433;-68
2022/03/29 08:06:09;;;;;;;94.63;49.35;;;;;;;;;;5305701;28;20048;-69
2022/03/29 08:08:41;;;;;;;96.10;50.38;;;;;;;;;;5304930;28;20016;-69
2022/03/29 08:11:13;;;;;;;94.65;49.15;;;;;;;;;;5305564;28;20020;-68
2022/03/29 08:13:46;;;;;;;94.40;51.45;;;;;;;;;;5304216;28;20445;-68
2022/03/29 08:16:17;;;;;;;91.22;48.60;;;;;;;;;;5305676;28;20117;-67
2022/03/29 08:18:48;;;;;;;87.88;49.40;;;;;;;;;;5304764;28;20028;-66
2022/03/29 08:24:09;;;;;;;90.88;50.28;;;;;;;;;;5305403;28;20347;-67
2022/03/29 08:26:40;;;;;;;90.07;50.35;;;;;;;;;;5305394;28;20016;-68
2022/03/29 08:29:12;;;;;;;97.56;52.72;;;;;;;;;;5304451;28;20040;-69
2022/03/29 08:31:44;;;;;;;92.35;51.00;;;;;;;;;;5305068;28;20012;-67
2022/03/29 08:34:16;;;;;;;93.00;51.60;;;;;;;;;;5305227;28;20028;-67
2022/03/29 08:36:49;;;;;;;97.85;52.58;;;;;;;;;;5303859;28;20023;-67
2022/03/29 08:39:20;;;;;;;97.30;50.35;;;;;;;;;;5305452;28;20417;-67
2022/03/29 08:42:00;;;;;;;100.72;54.00;;;;;;;;;;5303945;28;20016;-68
2022/03/29 08:44:32;;;;;;;95.05;48.85;;;;;;;;;;5304748;28;20024;-68
2022/03/29 08:47:05;;;;;;;89.07;47.17;;;;;;;;;;5304655;28;20047;-69
2022/03/29 08:49:36;;;;;;;91.43;50.00;;;;;;;;;;5304044;28;20520;-68
2022/03/29 08:52:08;;;;;;;93.70;50.95;;;;;;;;;;5304602;28;20052;-68
2022/03/29 08:54:40;;;;;;;98.50;50.40;;;;;;;;;;5304610;28;20058;-68
2022/03/29 08:57:11;;;;;;;104.25;50.67;;;;;;;;;;5303229;28;20427;-67
2022/03/29 08:59:43;;;;;;;101.53;48.80;;;;;;;;;;5304437;28;20047;-68
2022/03/29 09:02:18;;;;;;;99.00;52.30;;;;;;;;;;5304780;28;20462;-68
2022/03/29 09:05:08;;;;;;;99.43;52.40;;;;;;;;;;5303414;28;20435;-67
2022/03/29 09:08:08;;;;;;;98.78;51.45;;;;;;;;;;5304649;28;20052;-67
2022/03/29 09:10:49;;;;;;;96.18;51.70;;;;;;;;;;5301274;28;20056;-67
2022/03/29 09:13:21;;;;;;;98.32;52.15;;;;;;;;;;5303837;28;20032;-67
2022/03/29 09:15:57;;;;;;;103.20;52.35;;;;;;;;;;5303565;28;20415;-67
2022/03/29 09:18:30;;;;;;;105.97;55.22;;;;;;;;;;5303872;28;20474;-68
2022/03/29 09:21:06;;;;;;;103.05;52.28;;;;;;;;;;5304004;28;20487;-68
2022/03/29 09:23:39;;;;;;;101.25;50.95;;;;;;;;;;5304270;28;20478;-68
2022/03/29 09:26:26;;;;;;;113.43;55.03;;;;;;;;;;5303030;28;20367;-68
2022/03/29 09:28:58;;;;;;;108.88;53.35;;;;;;;;;;5303362;28;20031;-67
2022/03/29 09:31:30;;;;;;;118.05;56.45;;;;;;;;;;5303316;28;20027;-68
2022/03/29 09:34:20;;;;;;;105.95;53.30;;;;;;;;;;5303822;28;20372;-68
2022/03/29 09:36:52;;;;;;;111.47;55.10;;;;;;;;;;5303364;28;20061;-68
2022/03/29 09:39:39;;;;;;;126.60;59.10;;;;;;;;;;5303380;28;20016;-68
2022/03/29 09:42:14;;;;;;;110.50;55.15;;;;;;;;;;5303966;28;20028;-68
2022/03/29 09:44:46;;;;;;;127.45;57.42;;;;;;;;;;5303513;28;20028;-68
2022/03/29 09:47:21;;;;;;;116.20;55.50;;;;;;;;;;5303136;28;20502;-68
2022/03/29 09:50:09;;;;;;;117.53;57.28;;;;;;;;;;5303521;28;20024;-68
2022/03/29 09:52:44;;;;;;;118.95;59.25;;;;;;;;;;5302276;28;20138;-67
2022/03/29 09:55:21;;;;;;;119.72;57.28;;;;;;;;;;5302382;28;20051;-68
2022/03/29 09:57:53;;;;;;;120.53;60.15;;;;;;;;;;5303034;28;20386;-68
2022/03/29 10:00:24;;;;;;;123.00;59.05;;;;;;;;;;5303089;28;20016;-68
2022/03/29 10:02:56;;;;;;;120.05;59.42;;;;;;;;;;5303121;28;20028;-68
2022/03/29 10:05:28;;;;;;;107.60;57.65;;;;;;;;;;5303161;28;20277;-68
2022/03/29 10:10:52;;;;;;;104.28;54.72;;;;;;;;;;5302674;28;20028;-69
2022/03/29 10:13:24;;;;;;;98.90;53.15;;;;;;;;;;5302243;28;20371;-68
2022/03/29 10:15:56;;;;;;;113.22;56.08;;;;;;;;;;5301985;28;20089;-66
2022/03/29 10:18:27;;;;;;;108.03;53.58;;;;;;;;;;5303104;28;20024;-67
2022/03/29 10:21:00;;;;;;;94.60;51.83;;;;;;;;;;5301919;28;20055;-67
2022/03/29 10:23:32;;;;;;;98.15;54.45;;;;;;;;;;5302204;28;20057;-67
2022/03/29 10:26:04;;;;;;;93.50;52.22;;;;;;;;;;5302968;28;20016;-67
2022/03/29 10:28:36;;;;;;;88.88;52.33;;;;;;;;;;5301977;28;20673;-67
2022/03/29 10:31:25;;;;;;;87.80;54.65;;;;;;;;;;5302763;28;20030;-67
2022/03/29 10:34:37;;;;;;;84.38;47.40;;;;;;;;;;5302380;28;20391;-66
2022/03/29 10:37:08;;;;;;;79.25;47.28;;;;;;;;;;5237625;28;20072;-67
2022/03/29 10:39:52;;;;;;;72.72;44.33;;;;;;;;;;5293655;28;20370;-68
2022/03/29 10:42:27;;;;;;;74.05;45.33;;;;;;;;;;5302345;28;20024;-67
2022/03/29 10:45:06;;;;;;;76.40;46.40;;;;;;;;;;5302166;28;20047;-68
2022/03/29 10:47:37;;;;;;;;;;;;;;;;;;5302836;28;20016;-68
2022/03/29 10:50:10;;;;;;;71.00;43.64;;;;;;;;;;5301969;28;19973;-68
2022/03/29 10:52:41;;;;;;;65.80;41.42;;;;;;;;;;5302366;28;20111;-68
2022/03/29 10:55:25;;;;;;;67.00;43.33;;;;;;;;;;5302085;28;20107;-66
2022/03/29 10:58:08;;;;;;;64.32;44.00;;;;;;;;;;5301701;28;20035;-68
2022/03/29 11:00:43;;;;;;;63.30;42.05;;;;;;;;;;5302002;28;20379;-69
2022/03/29 11:03:16;;;;;;;63.20;43.13;;;;;;;;;;5301149;28;20020;-68
2022/03/29 11:06:07;;;;;;;61.28;41.63;;;;;;;;;;5301924;28;20130;-67
2022/03/29 11:08:40;;;;;;;62.42;39.78;;;;;;;;;;5302078;28;20105;-68
2022/03/29 11:11:30;;;;;;;60.20;39.45;;;;;;;;;;5301033;28;20103;-68
2022/03/29 11:14:19;;;;;;;52.60;39.67;;;;;;;;;;5301985;28;20089;-67
2022/03/29 11:16:51;;;;;;;49.83;37.45;;;;;;;;;;5300834;28;20455;-68
2022/03/29 11:19:38;;;;;;;49.88;37.33;;;;;;;;;;5302307;28;20016;-68
2022/03/29 11:22:22;;;;;;;52.53;38.25;;;;;;;;;;5302221;28;20024;-68
2022/03/29 11:24:54;;;;;;;54.40;37.70;;;;;;;;;;5300944;28;20035;-68
2022/03/29 11:27:26;;;;;;;56.42;37.80;;;;;;;;;;5302090;28;20016;-68
2022/03/29 11:29:58;;;;;;;52.38;37.38;;;;;;;;;;5301805;28;20470;-69
2022/03/29 11:32:30;;;;;;;53.33;38.10;;;;;;;;;;5300868;28;20027;-69
2022/03/29 11:35:03;;;;;;;57.35;42.30;;;;;;;;;;5304870;28;20382;-68
2022/03/29 11:37:37;;;;;;;57.75;40.10;;;;;;;;;;5305330;28;20012;-68
2022/03/29 11:40:13;;;;;;;52.10;39.58;;;;;;;;;;5306148;28;20111;-68
2022/03/29 11:42:49;;;;;;;59.70;41.97;;;;;;;;;;5305399;28;20034;-68
2022/03/29 11:45:21;;;;;;;58.95;39.67;;;;;;;;;;5318505;28;20019;-68
2022/03/29 11:47:54;;;;;;;55.28;43.47;;;;;;;;;;5315568;28;20064;-67
2022/03/29 11:50:31;;;;;;;52.30;41.20;;;;;;;;;;5315918;28;20020;-68
2022/03/29 11:53:03;;;;;;;51.20;39.40;;;;;;;;;;5323034;28;20023;-68
2022/03/29 11:55:34;;;;;;;51.22;40.53;;;;;;;;;;5327010;28;20084;-69
2022/03/29 11:58:22;;;;;;;46.67;37.90;;;;;;;;;;5326988;28;20490;-70
2022/03/29 12:01:00;;;;;;;57.80;37.80;;;;;;;;;;5325898;28;20383;-69
2022/03/29 12:03:35;;;;;;;49.90;38.03;;;;;;;;;;5326870;28;20030;-69
2022/03/29 12:06:08;;;;;;;48.17;39.53;;;;;;;;;;5326292;28;20366;-69
2022/03/29 12:08:54;;;;;;;45.10;35.67;;;;;;;;;;5326710;28;20011;-68
2022/03/29 12:11:33;;;;;;;44.70;35.15;;;;;;;;;;5327331;28;20123;-68
2022/03/29 12:14:10;;;;;;;42.43;34.90;;;;;;;;;;5326289;28;20587;-68
2022/03/29 12:16:41;;;;;;;45.50;35.10;;;;;;;;;;5326502;28;20346;-67
2022/03/29 12:19:13;;;;;;;43.22;32.92;;;;;;;;;;5326522;28;20027;-68
2022/03/29 12:21:49;;;;;;;44.55;34.00;;;;;;;;;;5324451;28;20776;-68
2022/03/29 12:24:21;;;;;;;42.22;31.90;;;;;;;;;;5326450;28;20016;-68
2022/03/29 12:26:54;;;;;;;38.53;31.85;;;;;;;;;;5325440;28;20080;-68
2022/03/29 12:29:26;;;;;;;40.15;32.15;;;;;;;;;;5326854;28;20080;-68
2022/03/29 12:31:59;;;;;;;37.42;30.83;;;;;;;;;;5326091;28;20020;-68
2022/03/29 12:34:31;;;;;;;35.58;29.13;;;;;;;;;;5325702;28;20028;-68
2022/03/29 12:37:04;;;;;;;39.60;29.60;;;;;;;;;;5326495;28;20466;-68
2022/03/29 12:39:37;;;;;;;39.25;31.40;;;;;;;;;;5326448;28;20091;-68
2022/03/29 12:42:16;;;;;;;38.75;29.13;;;;;;;;;;5325325;28;20347;-68
2022/03/29 12:44:54;;;;;;;38.15;29.48;;;;;;;;;;5325775;28;20068;-68
2022/03/29 12:47:26;;;;;;;39.40;30.10;;;;;;;;;;5326034;28;20454;-68
2022/03/29 12:49:58;;;;;;;36.70;29.90;;;;;;;;;;5324577;28;20012;-69
2022/03/29 12:52:29;;;;;;;37.05;28.10;;;;;;;;;;5325335;28;20103;-68
2022/03/29 12:55:02;;;;;;;35.55;28.33;;;;;;;;;;5323426;28;20046;-69
2022/03/29 12:57:41;;;;;;;37.95;28.73;;;;;;;;;;5326071;28;20420;-69
2022/03/29 13:00:14;;;;;;;37.10;27.75;;;;;;;;;;5326101;28;20012;-68
2022/03/29 13:02:48;;;;;;;37.92;29.88;;;;;;;;;;5324925;28;20023;-68
2022/03/29 13:05:22;;;;;;;34.55;27.45;;;;;;;;;;5325903;28;20029;-68
2022/03/29 13:07:53;;;;;;;35.00;25.33;;;;;;;;;;5325508;28;20019;-68
2022/03/29 13:10:32;;;;;;;29.75;25.58;;;;;;;;;;5325223;28;20497;-68
2022/03/29 13:13:05;;;;;;;39.33;26.42;;;;;;;;;;5325505;28;20290;-68
2022/03/29 13:15:55;;;;;;;33.28;25.23;;;;;;;;;;5325246;28;20050;-68
2022/03/29 13:18:26;;;;;;;30.48;26.00;;;;;;;;;;5325094;28;20046;-68
2022/03/29 13:21:13;;;;;;;33.22;26.45;;;;;;;;;;5324766;28;20040;-68
2022/03/29 13:23:45;;;;;;;32.22;24.52;;;;;;;;;;5324030;28;20018;-68
2022/03/29 13:26:17;;;;;;;31.75;23.88;;;;;;;;;;5325682;28;20037;-68
2022/03/29 13:28:50;;;;;;;29.10;22.02;;;;;;;;;;5324550;28;20012;-69
2022/03/29 13:31:23;;;;;;;32.83;24.20;;;;;;;;;;5324687;28;20106;-68
2022/03/29 13:33:55;;;;;;;31.73;24.52;;;;;;;;;;5324720;28;20547;-69
2022/03/29 13:36:27;;;;;;;34.67;23.58;;;;;;;;;;5325299;28;20084;-69
2022/03/29 13:38:58;;;;;;;33.97;23.10;;;;;;;;;;5323775;28;20011;-69
2022/03/29 13:41:30;;;;;;;31.27;20.50;;;;;;;;;;5325020;28;20095;-69
2022/03/29 13:44:01;;;;;;;28.67;21.25;;;;;;;;;;5324528;28;20027;-68
2022/03/29 13:46:32;;;;;;;26.85;22.02;;;;;;;;;;5324114;28;20458;-69
2022/03/29 13:49:03;;;;;;;32.70;22.88;;;;;;;;;;5324731;28;20024;-69
2022/03/29 13:51:35;;;;;;;34.92;23.27;;;;;;;;;;5323905;28;20019;-69
2022/03/29 13:54:06;;;;;;;30.38;23.85;;;;;;;;;;5319799;28;20032;-70
2022/03/29 13:56:37;;;;;;;28.60;23.48;;;;;;;;;;5323787;28;20019;-68
2022/03/29 13:59:09;;;;;;;31.20;21.48;;;;;;;;;;5323870;28;20466;-69
2022/03/29 14:01:42;;;;;;;30.85;23.90;;;;;;;;;;5324597;28;20085;-70
2022/03/29 14:04:13;;;;;;;30.02;22.42;;;;;;;;;;5324925;28;20274;-69
2022/03/29 14:06:45;;;;;;;28.35;20.92;;;;;;;;;;5323430;28;20042;-69
2022/03/29 14:09:16;;;;;;;31.65;21.35;;;;;;;;;;5324766;28;20326;-69
2022/03/29 14:11:47;;;;;;;30.80;24.33;;;;;;;;;;5324168;28;20348;-69
2022/03/29 14:14:18;;;;;;;30.50;22.88;;;;;;;;;;5323641;28;20075;-67
2022/03/29 14:16:49;;;;;;;31.30;22.52;;;;;;;;;;5323615;28;20058;-68
2022/03/29 14:19:20;;;;;;;34.40;25.88;;;;;;;;;;5323650;28;20348;-68
2022/03/29 14:21:52;;;;;;;34.13;25.45;;;;;;;;;;5323756;28;20372;-68
2022/03/29 14:24:23;;;;;;;31.42;22.65;;;;;;;;;;5324168;28;20030;-68
2022/03/29 14:26:55;;;;;;;34.97;22.92;;;;;;;;;;5323142;28;20336;-68
2022/03/29 14:29:27;;;;;;;34.70;24.88;;;;;;;;;;5323900;28;20440;-67
2022/03/29 14:32:02;;;;;;;38.20;26.38;;;;;;;;;;5323924;28;20464;-67
2022/03/29 14:34:33;;;;;;;39.00;29.15;;;;;;;;;;5323082;28;20478;-67
2022/03/29 14:37:05;;;;;;;43.28;29.02;;;;;;;;;;5323886;28;20080;-67
2022/03/29 14:39:36;;;;;;;39.72;29.20;;;;;;;;;;5323868;28;20024;-67
2022/03/29 14:42:08;;;;;;;37.28;27.13;;;;;;;;;;5323050;28;20016;-67
2022/03/29 14:44:39;;;;;;;38.75;24.63;;;;;;;;;;5323684;28;20035;-67
2022/03/29 14:47:10;;;;;;;38.78;25.90;;;;;;;;;;5323858;28;20289;-70
2022/03/29 14:49:41;;;;;;;41.53;27.40;;;;;;;;;;5317082;28;20046;-69
2022/03/29 14:52:13;;;;;;;33.42;22.92;;;;;;;;;;5310015;28;20366;-70
2022/03/29 14:54:45;;;;;;;37.08;22.73;;;;;;;;;;5309163;28;20036;-68
2022/03/29 14:57:16;;;;;;;40.67;25.08;;;;;;;;;;5302738;28;20078;-69
2022/03/29 14:59:47;;;;;;;37.35;25.05;;;;;;;;;;5301835;28;20036;-68